OAKN

Details ICAO OAKN (KDH)
Name KANDAHAR
Region Afghanistan
Timezone Asia/Kabul (UTC+4.5)
Plans Departing 27
Arriving 29
Stats Elevation 3,337 ft / 1,017 m (AMSL)
Location 31.505754° 65.847824°
Runways 1
Magnetic Variation 2.574° E
Sunrise 2017-12-12 02:27:51 UTC / 2017-12-12 06:57:51 Local
Sunset 2017-12-12 12:35:32 UTC / 2017-12-12 17:05:32 Local
Advertisement - Login to hide

Runways

ID Width Length Bearing (true) Bearing (mag) Surface Threshold Offset Overrun Length
05 148 ft / 45 m 10,531 ft / 3,210 m 55.15° 52.58° Asphalt 0 ft / 0 m 0 ft / 0 m
23 148 ft / 45 m 10,531 ft / 3,210 m 235.17° 232.60° Asphalt 2,001 ft / 610 m 0 ft / 0 m

Map

Weather


0- 5 10 15 20 25 30 35+ Temperature / ° C

Clouds and Precipitation
Forecast for 2017-12-12 18:00 UTC. Updated an hour ago

Ground ~20,000 ft ~40,000 ft Winds

METAR

OAKN 121555Z 19003KT 9999 FEW170 FEW200 06/M11 A3011 RMK AO2A SLP194 Q1019 PA3130 DA2793

TAF

TAF TAF OAKN 121500Z 1215/1321 27006KT 9000 HZ SKC QNH3009INS BECMG 1222/1223 07006KT 8000 DU SKC QNH3013INS BECMG 1304/1305 25009KT 5000 DU SKC QNH3011INS TX11/1309Z TNM01/1302Z

Frequencies

Clearance 119.75 MHz CLNC DEL
Tower 125.50 MHz TWR
Approach 123.70 MHz APP
Approach 122.60 MHz APP
Ground 133.00 MHz GND
Approach 122.60 MHz GCA
Approach 120.80 MHz APP
Warning: Do not use this data for real-world aviation or navigation. No guarantee of current accuracy is given.